createdAt,value
2023-04-04T00:00:59.759Z,3.72
2023-04-04T00:04:03.600Z,3.65
2023-04-04T00:07:08.048Z,19.33
2023-04-04T00:10:11.768Z,4.35
2023-04-04T00:13:15.515Z,4.90
2023-04-04T00:16:18.494Z,6.32
2023-04-04T00:19:22.685Z,6.47
2023-04-04T00:22:26.514Z,5.28
2023-04-04T00:25:30.251Z,4.05
2023-04-04T00:28:34.173Z,9.82
2023-04-04T00:31:38.360Z,2.75
2023-04-04T00:34:42.289Z,6.40
2023-04-04T00:37:47.060Z,6.28
2023-04-04T00:40:52.084Z,6.45
2023-04-04T00:43:56.820Z,6.43
2023-04-04T00:47:00.486Z,6.55
2023-04-04T00:50:04.433Z,4.65
2023-04-04T00:53:07.417Z,4.47
2023-04-04T00:56:11.890Z,5.90
2023-04-04T00:59:16.656Z,6.45
2023-04-04T01:02:21.404Z,9.95
2023-04-04T01:05:25.288Z,6.57
2023-04-04T01:08:30.771Z,4.53
2023-04-04T01:11:34.553Z,2.90
2023-04-04T01:14:41.382Z,2.88
2023-04-04T01:17:45.593Z,3.40
2023-04-04T01:21:02.716Z,7.80
2023-04-04T01:24:10.939Z,2.15
2023-04-04T01:27:23.991Z,1.35
2023-04-04T01:30:37.261Z,1.70
2023-04-04T01:33:51.064Z,1.55
2023-04-04T01:37:23.736Z,1.67
2023-04-04T01:40:35.888Z,7.28
2023-04-04T01:43:40.632Z,3.88
2023-04-04T01:46:44.084Z,4.80
2023-04-04T01:49:47.961Z,2.08
2023-04-04T01:52:52.166Z,3.35
2023-04-04T01:55:55.172Z,5.55
2023-04-04T01:58:59.029Z,1.38
2023-04-04T02:02:02.818Z,1.83
2023-04-04T02:05:07.183Z,2.25
2023-04-04T02:08:10.471Z,1.23
2023-04-04T02:11:24.087Z,2.47
2023-04-04T02:14:27.500Z,1.40
2023-04-04T02:17:32.614Z,1.65
2023-04-04T02:20:36.433Z,0.75
2023-04-04T02:23:40.192Z,2.42
2023-04-04T02:26:43.985Z,1.58
2023-04-04T02:29:48.173Z,1.48
2023-04-04T02:32:51.803Z,2.28
2023-04-04T02:36:00.963Z,1.92
2023-04-04T02:39:06.421Z,1.30
2023-04-04T02:42:10.362Z,2.60
2023-04-04T02:45:15.083Z,1.13
2023-04-04T02:48:26.511Z,1.02
2023-04-04T02:51:34.696Z,1.10
2023-04-04T02:54:38.081Z,2.17
2023-04-04T02:57:43.979Z,1.83
2023-04-04T03:00:54.084Z,2.40
2023-04-04T03:04:00.553Z,2.72
2023-04-04T03:07:04.529Z,2.17
2023-04-04T03:10:08.925Z,3.30
2023-04-04T03:13:12.961Z,2.08
2023-04-04T03:16:18.340Z,1.20
2023-04-04T03:19:27.280Z,2.88
2023-04-04T03:22:32.364Z,1.60
2023-04-04T03:25:37.789Z,1.40
2023-04-04T03:28:43.872Z,2.92
2023-04-04T03:31:48.604Z,3.47
2023-04-04T03:34:52.994Z,1.63
2023-04-04T03:37:56.780Z,2.22
2023-04-04T03:41:04.519Z,3.95
2023-04-04T03:44:08.191Z,4.05
2023-04-04T03:47:11.915Z,1.80
2023-04-04T03:50:15.046Z,2.03
2023-04-04T03:53:29.090Z,2.28
2023-04-04T03:59:41.173Z,4.40
2023-04-04T04:02:45.485Z,3.30
2023-04-04T04:05:50.929Z,1.17
2023-04-04T04:08:56.174Z,2.50
2023-04-04T04:12:01.069Z,2.90
2023-04-04T04:15:05.209Z,1.58
2023-04-04T04:18:10.943Z,2.47
2023-04-04T04:21:14.755Z,5.35
2023-04-04T04:24:19.948Z,7.95
2023-04-04T04:27:24.360Z,2.17
2023-04-04T04:30:28.475Z,6.65
2023-04-04T04:33:32.905Z,3.83
2023-04-04T04:36:40.146Z,1.63
2023-04-04T04:39:54.606Z,2.33
2023-04-04T04:43:16.300Z,1.95
2023-04-04T04:46:20.137Z,1.40
2023-04-04T04:49:23.984Z,3.95
2023-04-04T04:52:32.125Z,6.93
2023-04-04T04:55:35.781Z,3.35
2023-04-04T04:58:45.825Z,8.32
2023-04-04T05:01:56.450Z,2.13
2023-04-04T05:05:02.335Z,3.00
2023-04-04T05:08:08.590Z,5.78
2023-04-04T05:11:16.978Z,1.50
2023-04-04T05:14:21.092Z,6.22
2023-04-04T05:17:29.285Z,2.42
2023-04-04T05:20:40.249Z,1.90
2023-04-04T05:23:49.122Z,3.08
2023-04-04T05:26:55.589Z,5.03
2023-04-04T05:30:00.170Z,2.15
2023-04-04T05:33:17.218Z,1.00
2023-04-04T05:36:33.760Z,2.63
2023-04-04T05:39:45.070Z,2.08
2023-04-04T05:42:58.277Z,3.03
2023-04-04T05:46:11.116Z,1.35
2023-04-04T05:49:22.814Z,2.53
2023-04-04T05:52:37.786Z,2.33
2023-04-04T05:55:46.656Z,3.67
2023-04-04T05:58:53.770Z,2.15
2023-04-04T06:01:59.618Z,3.83
2023-04-04T06:05:07.757Z,4.32
2023-04-04T06:08:17.314Z,2.33
2023-04-04T06:11:27.353Z,2.60
2023-04-04T06:14:42.019Z,5.78
2023-04-04T06:17:49.745Z,4.18
2023-04-04T06:21:08.491Z,5.55
2023-04-04T06:24:18.031Z,3.88
2023-04-04T06:27:23.492Z,2.97
2023-04-04T06:30:28.563Z,2.67
2023-04-04T06:33:34.333Z,5.78
2023-04-04T06:36:39.998Z,2.42
2023-04-04T06:39:44.848Z,2.95
2023-04-04T06:43:00.232Z,2.33
2023-04-04T06:46:12.527Z,2.35
2023-04-04T06:49:18.192Z,5.10
2023-04-04T06:52:24.218Z,1.50
2023-04-04T06:55:30.425Z,5.57
2023-04-04T06:58:35.586Z,3.33
2023-04-04T07:01:40.794Z,3.25
2023-04-04T07:04:45.227Z,2.95
2023-04-04T07:07:50.125Z,2.95
2023-04-04T07:10:54.169Z,1.30
2023-04-04T07:13:59.186Z,4.20
2023-04-04T07:17:10.656Z,3.38
2023-04-04T07:23:26.924Z,1.35
2023-04-04T07:26:32.070Z,2.08
2023-04-04T07:29:36.669Z,4.03
2023-04-04T07:32:40.605Z,2.72
2023-04-04T07:35:44.000Z,1.88
2023-04-04T07:38:48.227Z,2.05
2023-04-04T07:41:51.897Z,3.95
2023-04-04T07:44:56.358Z,3.50
2023-04-04T07:48:00.440Z,5.80
2023-04-04T07:51:05.492Z,3.88
2023-04-04T07:54:09.574Z,2.30
2023-04-04T07:57:13.424Z,4.10
2023-04-04T08:00:22.507Z,1.42
2023-04-04T08:03:27.462Z,3.40
2023-04-04T08:06:32.368Z,2.88
2023-04-04T08:09:37.259Z,5.38
2023-04-04T08:12:41.790Z,1.85
2023-04-04T08:15:45.891Z,2.03
2023-04-04T08:18:50.527Z,1.90
2023-04-04T08:21:54.667Z,3.08
2023-04-04T08:25:00.198Z,5.10
2023-04-04T08:28:14.354Z,4.22
2023-04-04T08:31:18.541Z,4.85
2023-04-04T08:34:24.753Z,16.17
2023-04-04T08:37:30.160Z,5.28
2023-04-04T08:40:40.811Z,3.50
2023-04-04T08:43:55.940Z,6.55
2023-04-04T08:47:02.546Z,4.13
2023-04-04T08:50:08.663Z,3.90
2023-04-04T08:53:13.084Z,4.55
2023-04-04T08:56:16.800Z,6.60
2023-04-04T08:59:20.593Z,6.65
2023-04-04T09:03:17.920Z,1.67
2023-04-04T09:06:22.262Z,3.35
2023-04-04T09:09:25.785Z,6.95
2023-04-04T09:12:30.681Z,8.77
2023-04-04T09:15:36.762Z,3.13
2023-04-04T09:18:59.008Z,3.33
2023-04-04T09:22:02.906Z,7.25
2023-04-04T09:25:09.067Z,8.23
2023-04-04T09:28:13.627Z,3.08
2023-04-04T09:31:17.851Z,4.88
2023-04-04T09:34:22.095Z,5.28
2023-04-04T09:37:26.151Z,6.97
2023-04-04T09:40:31.417Z,2.78
2023-04-04T09:43:35.902Z,6.22
2023-04-04T09:46:40.988Z,5.68
2023-04-04T09:49:45.221Z,5.68
2023-04-04T09:52:51.172Z,4.03
2023-04-04T09:55:56.363Z,3.75
2023-04-04T09:59:05.763Z,4.53
2023-04-04T10:02:11.065Z,5.78
2023-04-04T10:08:24.916Z,3.72
2023-04-04T10:14:39.888Z,4.53
2023-04-04T10:17:45.389Z,2.22
2023-04-04T10:20:50.393Z,2.28
2023-04-04T10:23:55.737Z,4.22
2023-04-04T10:26:59.703Z,2.25
2023-04-04T10:30:04.334Z,2.45
2023-04-04T10:33:16.031Z,5.03
2023-04-04T10:36:24.386Z,3.05
2023-04-04T10:39:33.819Z,4.50
2023-04-04T10:42:46.976Z,6.35
2023-04-04T10:45:52.784Z,2.25
2023-04-04T10:48:55.956Z,3.20
2023-04-04T10:51:59.771Z,7.03
2023-04-04T10:55:07.362Z,6.10
2023-04-04T10:58:12.902Z,5.07
2023-04-04T11:01:22.001Z,10.38
2023-04-04T11:04:40.050Z,5.07
2023-04-04T11:07:57.124Z,9.73
2023-04-04T11:11:21.847Z,7.97
2023-04-04T11:14:36.848Z,8.57
2023-04-04T11:18:00.688Z,5.88
2023-04-04T11:21:08.687Z,3.63
2023-04-04T11:24:16.843Z,12.27
2023-04-04T11:27:20.569Z,12.98
2023-04-04T11:30:24.394Z,7.03
2023-04-04T11:33:29.776Z,12.70
2023-04-04T11:36:36.851Z,22.50
2023-04-04T11:40:00.040Z,11.57
2023-04-04T11:43:09.038Z,16.20
2023-04-04T11:46:18.138Z,16.42
2023-04-04T11:49:25.891Z,7.70
2023-04-04T11:52:36.387Z,16.48
2023-04-04T11:55:44.306Z,10.70
2023-04-04T11:59:01.548Z,8.02
2023-04-04T12:02:10.735Z,19.75
2023-04-04T12:05:14.181Z,22.08
2023-04-04T12:08:18.903Z,46.15
2023-04-04T12:11:23.825Z,44.30
2023-04-04T12:14:30.709Z,31.90
2023-04-04T12:17:35.143Z,15.60
2023-04-04T12:20:42.113Z,13.43
2023-04-04T12:23:49.128Z,14.82
2023-04-04T12:26:56.555Z,16.45
2023-04-04T12:33:04.930Z,15.98
2023-04-04T12:36:09.080Z,10.07
2023-04-04T12:39:13.330Z,13.02
2023-04-04T12:42:25.678Z,12.10
2023-04-04T12:45:30.690Z,14.32
2023-04-04T12:48:37.357Z,7.22
2023-04-04T12:51:41.024Z,9.93
2023-04-04T12:57:49.759Z,11.50
2023-04-04T13:00:55.430Z,10.23
2023-04-04T13:04:06.614Z,12.90
2023-04-04T13:07:23.036Z,7.80
2023-04-04T13:10:26.881Z,12.40
2023-04-04T13:13:33.745Z,12.52
2023-04-04T13:16:42.554Z,16.38
2023-04-04T13:19:45.612Z,10.95
2023-04-04T13:22:50.321Z,9.75
2023-04-04T13:25:54.450Z,18.15
2023-04-04T13:28:58.223Z,15.43
2023-04-04T13:32:02.395Z,10.77
2023-04-04T13:35:06.444Z,12.68
2023-04-04T13:38:10.455Z,14.20
2023-04-04T13:41:13.890Z,14.70
2023-04-04T13:44:17.705Z,21.30
2023-04-04T13:47:23.266Z,15.80
2023-04-04T13:50:27.140Z,15.18
2023-04-04T13:53:30.573Z,19.90
2023-04-04T13:56:34.072Z,17.27
2023-04-04T13:59:37.465Z,17.95
2023-04-04T14:02:42.713Z,11.40
2023-04-04T14:05:46.669Z,18.15
2023-04-04T14:08:50.980Z,11.73
2023-04-04T14:11:54.384Z,7.70
2023-04-04T14:14:58.409Z,10.40
2023-04-04T14:18:01.967Z,11.88
2023-04-04T14:21:07.362Z,12.25
2023-04-04T14:24:11.231Z,12.60
2023-04-04T14:27:16.139Z,12.77
2023-04-04T14:30:19.812Z,15.95
2023-04-04T14:33:48.770Z,12.68
2023-04-04T14:36:52.348Z,14.93
2023-04-04T14:39:57.140Z,10.45
2023-04-04T14:43:00.574Z,14.77
2023-04-04T14:46:04.660Z,14.63
2023-04-04T14:49:07.699Z,13.15
2023-04-04T14:52:11.971Z,13.27
2023-04-04T14:55:16.261Z,14.65
2023-04-04T14:58:20.034Z,16.13
2023-04-04T15:01:24.955Z,12.52
2023-04-04T15:04:28.801Z,15.57
2023-04-04T15:07:32.143Z,15.07
2023-04-04T15:10:35.254Z,19.50
2023-04-04T15:13:40.731Z,16.33
2023-04-04T15:16:44.473Z,13.15
2023-04-04T15:19:48.448Z,11.27
2023-04-04T15:22:52.749Z,16.52
2023-04-04T15:25:56.568Z,22.58
2023-04-04T15:29:00.715Z,13.40
2023-04-04T15:32:04.561Z,17.15
2023-04-04T15:35:18.214Z,12.70
2023-04-04T15:38:22.549Z,15.98
2023-04-04T15:41:26.829Z,22.30
2023-04-04T15:44:30.594Z,11.77
2023-04-04T15:47:34.239Z,20.58
2023-04-04T15:50:38.103Z,11.05
2023-04-04T15:53:41.940Z,11.15
2023-04-04T15:56:45.658Z,20.02
2023-04-04T15:59:49.722Z,11.35
2023-04-04T16:02:53.571Z,9.13
2023-04-04T16:05:57.607Z,9.90
2023-04-04T16:09:00.995Z,16.33
2023-04-04T16:12:05.178Z,10.77
2023-04-04T16:15:09.348Z,15.77
2023-04-04T16:18:12.817Z,16.02
2023-04-04T16:21:17.955Z,13.38
2023-04-04T16:24:22.462Z,15.70
2023-04-04T16:27:26.445Z,16.40
2023-04-04T16:30:31.096Z,11.95
2023-04-04T16:33:39.225Z,8.38
2023-04-04T16:36:44.785Z,14.40
2023-04-04T16:39:49.885Z,15.45
2023-04-04T16:42:54.008Z,9.98
2023-04-04T16:45:58.452Z,8.80
2023-04-04T16:49:03.764Z,15.70
2023-04-04T16:52:08.509Z,6.38
2023-04-04T16:55:13.766Z,9.43
2023-04-04T16:58:17.738Z,7.22
2023-04-04T17:01:23.691Z,5.97
2023-04-04T17:04:27.617Z,9.48
2023-04-04T17:07:32.463Z,14.00
2023-04-04T17:10:41.459Z,8.55
2023-04-04T17:13:47.360Z,7.28
2023-04-04T17:16:53.206Z,8.20
2023-04-04T17:19:57.610Z,10.52
2023-04-04T17:23:02.296Z,7.50
2023-04-04T17:26:06.673Z,8.18
2023-04-04T17:29:10.390Z,10.30
2023-04-04T17:32:14.481Z,7.57
2023-04-04T17:35:19.132Z,9.65
2023-04-04T17:38:23.872Z,8.27
2023-04-04T17:41:28.511Z,9.45
2023-04-04T17:44:32.726Z,9.55
2023-04-04T17:47:36.542Z,9.07
2023-04-04T17:50:41.804Z,11.93
2023-04-04T17:53:46.589Z,5.68
2023-04-04T17:56:51.202Z,7.60
2023-04-04T17:59:55.386Z,40.28
2023-04-04T18:03:00.394Z,12.75
2023-04-04T18:06:05.020Z,11.43
2023-04-04T18:09:10.548Z,13.05
2023-04-04T18:12:16.742Z,16.05
2023-04-04T18:15:21.101Z,15.80
2023-04-04T18:18:25.559Z,11.57
2023-04-04T18:21:30.704Z,11.82
2023-04-04T18:24:35.015Z,10.38
2023-04-04T18:27:40.866Z,17.63
2023-04-04T18:30:45.839Z,7.72
2023-04-04T18:33:51.070Z,8.90
2023-04-04T18:36:55.602Z,8.18
2023-04-04T18:39:59.772Z,9.40
2023-04-04T18:43:05.176Z,9.13
2023-04-04T18:46:10.741Z,9.55
2023-04-04T18:49:15.654Z,5.03
2023-04-04T18:52:20.891Z,6.90
2023-04-04T18:55:25.830Z,12.30
2023-04-04T18:58:31.060Z,9.70
2023-04-04T19:01:36.520Z,3.92
2023-04-04T19:04:42.275Z,4.75
2023-04-04T19:07:48.935Z,4.22
2023-04-04T19:10:55.021Z,10.18
2023-04-04T19:13:59.228Z,5.03
2023-04-04T19:17:03.738Z,7.05
2023-04-04T19:20:08.924Z,3.10
2023-04-04T19:23:13.468Z,10.60
2023-04-04T19:26:18.357Z,5.13
2023-04-04T19:29:25.426Z,8.65
2023-04-04T19:32:30.706Z,8.07
2023-04-04T19:35:59.915Z,11.15
2023-04-04T19:39:04.322Z,7.60
2023-04-04T19:42:09.667Z,8.00
2023-04-04T19:45:15.107Z,4.25
2023-04-04T19:48:38.498Z,7.63
2023-04-04T19:51:46.693Z,5.07
2023-04-04T19:54:51.161Z,6.78
2023-04-04T19:57:55.521Z,8.73
2023-04-04T20:00:59.851Z,4.03
2023-04-04T20:04:12.083Z,3.50
2023-04-04T20:07:15.972Z,6.28
2023-04-04T20:10:40.561Z,3.28
2023-04-04T20:13:46.639Z,9.10
2023-04-04T20:16:53.602Z,4.78
2023-04-04T20:19:58.405Z,5.85
2023-04-04T20:23:03.912Z,4.18
2023-04-04T20:26:08.892Z,4.85
2023-04-04T20:29:19.657Z,5.60
2023-04-04T20:32:24.677Z,6.70
2023-04-04T20:35:29.778Z,9.35
2023-04-04T20:38:34.432Z,11.30
2023-04-04T20:41:38.657Z,11.93
2023-04-04T20:44:43.442Z,8.18
2023-04-04T20:47:50.381Z,9.77
2023-04-04T20:50:55.490Z,6.07
2023-04-04T20:54:02.680Z,5.95
2023-04-04T20:57:06.564Z,7.55
2023-04-04T21:00:32.599Z,6.43
2023-04-04T21:03:39.039Z,8.77
2023-04-04T21:06:43.351Z,5.60
2023-04-04T21:09:46.977Z,1.65
2023-04-04T21:12:52.007Z,6.78
2023-04-04T21:16:02.983Z,9.43
2023-04-04T21:19:07.567Z,6.78
2023-04-04T21:22:13.091Z,4.82
2023-04-04T21:25:46.666Z,8.70
2023-04-04T21:28:51.660Z,9.75
2023-04-04T21:31:57.517Z,8.25
2023-04-04T21:35:03.581Z,9.15
2023-04-04T21:38:08.117Z,6.75
2023-04-04T21:41:29.017Z,5.00
2023-04-04T21:44:33.778Z,5.75
2023-04-04T21:47:38.048Z,7.63
2023-04-04T21:50:43.766Z,4.43
2023-04-04T21:53:48.859Z,4.15
2023-04-04T21:56:53.988Z,5.25
2023-04-04T21:59:57.918Z,4.65
2023-04-04T22:03:03.205Z,4.18
2023-04-04T22:06:08.411Z,3.85
2023-04-04T22:09:12.919Z,4.68
2023-04-04T22:12:17.954Z,4.78
2023-04-04T22:15:24.614Z,7.40
2023-04-04T22:18:37.589Z,4.22
2023-04-04T22:21:49.345Z,7.03
2023-04-04T22:24:54.497Z,14.65
2023-04-04T22:27:59.841Z,18.45
2023-04-04T22:31:06.822Z,21.92
2023-04-04T22:34:14.107Z,18.97
2023-04-04T22:37:22.325Z,17.80
2023-04-04T22:40:26.222Z,13.00
2023-04-04T22:43:29.717Z,15.20
2023-04-04T22:46:33.966Z,12.45
2023-04-04T22:49:39.497Z,13.43
2023-04-04T22:52:44.081Z,13.00
2023-04-04T22:55:47.692Z,8.15
2023-04-04T22:58:51.465Z,14.82
2023-04-04T23:02:01.199Z,12.20
2023-04-04T23:05:14.118Z,19.70
2023-04-04T23:08:26.131Z,9.82
2023-04-04T23:11:37.744Z,6.15
2023-04-04T23:14:49.202Z,11.02
2023-04-04T23:18:00.010Z,14.70
2023-04-04T23:21:10.242Z,11.77
2023-04-04T23:24:20.289Z,23.45
2023-04-04T23:27:31.984Z,14.98
2023-04-04T23:30:42.159Z,12.07
2023-04-04T23:33:54.770Z,10.88
2023-04-04T23:37:05.540Z,5.18
2023-04-04T23:40:18.864Z,12.43
2023-04-04T23:43:29.541Z,8.70
2023-04-04T23:46:41.391Z,17.67
2023-04-04T23:50:17.867Z,10.15
2023-04-04T23:53:22.505Z,10.13
2023-04-04T23:56:27.189Z,8.05
2023-04-04T23:59:30.552Z,11.75
